Time;durP1;ratioP1;P1;durP2;ratioP2;P2;SDS_P1;SDS_P2;PMS_P1;PMS_P2;Temp;Humidity;BMP_temperature;BMP_pressure;BME280_temperature;BME280_humidity;BME280_pressure;Samples;Min_cycle;Max_cycle;Signal;HPM_P1;HPM_P2
2021/01/31 05:01:26;;;;;;;;;;;3.10;99.90;;;;;;5579117;22;19925;-64
2021/01/31 05:03:55;;;;;;;;;;;3.00;99.90;;;;;;5017483;28;20399;-64
2021/01/31 05:06:22;;;;;;;;;;;2.90;99.90;;;;;;5017710;28;19926;-64
2021/01/31 05:08:49;;;;;;;;;;;3.00;99.90;;;;;;5018953;28;19926;-64
2021/01/31 05:11:19;;;;;;;;;;;3.10;99.90;;;;;;5018967;28;19932;-65
2021/01/31 05:13:50;;;;;;;;;;;3.20;99.90;;;;;;5019597;28;19956;-64
2021/01/31 05:16:17;;;;;;;;;;;3.20;99.90;;;;;;5019222;28;19929;-64
2021/01/31 05:18:45;;;;;;;;;;;3.10;99.90;;;;;;5019522;28;19933;-64
2021/01/31 05:21:12;;;;;;;;;;;3.00;99.90;;;;;;5018913;28;20384;-63
2021/01/31 05:23:39;;;;;;;;;;;3.00;99.90;;;;;;5020015;28;19995;-63
2021/01/31 05:26:06;;;;;;;;;;;3.00;99.90;;;;;;5019043;28;20395;-64
2021/01/31 05:28:34;;;;;;;;;;;3.00;99.90;;;;;;5018924;28;19926;-64
2021/01/31 05:31:00;;;;;;;;;;;3.10;99.90;;;;;;5018615;28;19926;-64
2021/01/31 05:33:26;;;;;;;;;;;3.10;99.90;;;;;;5018558;28;19937;-63
2021/01/31 05:36:12;;;;;;;;;;;3.20;99.90;;;;;;5017919;28;19926;-64
2021/01/31 05:38:39;;;;;;;;;;;3.20;99.90;;;;;;5016868;28;19933;-64
2021/01/31 05:41:20;;;;;;;;;;;3.20;99.90;;;;;;5017121;28;20391;-64
2021/01/31 05:43:54;;;;;;;;;;;3.20;99.90;;;;;;5017474;28;19926;-63
2021/01/31 05:46:20;;;;;;;;;;;3.20;99.90;;;;;;5017192;28;19926;-65
2021/01/31 05:48:47;;;;;;;;;;;3.30;99.90;;;;;;5016926;28;20376;-64
2021/01/31 05:51:14;;;;;;;;;;;3.40;99.90;;;;;;5017721;28;20303;-64
2021/01/31 05:53:41;;;;;;;;;;;3.30;99.90;;;;;;5020512;28;19979;-63
2021/01/31 05:56:23;;;;;;;;;;;3.30;99.90;;;;;;5020238;28;19925;-63
2021/01/31 05:58:50;;;;;;;;;;;3.30;99.90;;;;;;5023821;28;19926;-64
2021/01/31 06:01:16;;;;;;;;;;;3.40;99.90;;;;;;5023723;28;19926;-63
2021/01/31 06:03:42;;;;;;;;;;;3.50;99.90;;;;;;5023238;28;19930;-64
2021/01/31 06:06:14;;;;;;;;;;;3.60;99.90;;;;;;5016839;28;19979;-64
2021/01/31 06:08:42;;;;;;;;;;;3.60;99.90;;;;;;5016787;28;19980;-64
2021/01/31 06:11:09;;;;;;;;;;;3.70;99.90;;;;;;5016536;28;19926;-64
2021/01/31 06:13:36;;;;;;;;;;;3.60;99.90;;;;;;5016655;28;20303;-64
2021/01/31 06:16:04;;;;;;;;;;;3.60;99.90;;;;;;5016323;28;20396;-64
2021/01/31 06:18:33;;;;;;;;;;;3.50;99.90;;;;;;5018257;28;19926;-64
2021/01/31 06:21:08;;;;;;;;;;;3.50;99.90;;;;;;5032764;28;20269;-64
2021/01/31 06:23:36;;;;;;;;;;;3.60;99.90;;;;;;5036458;28;19932;-64
2021/01/31 06:26:03;;;;;;;;;;;3.70;99.90;;;;;;5034345;28;19952;-63
2021/01/31 06:28:35;;;;;;;;;;;3.70;99.90;;;;;;5021154;28;19926;-63
2021/01/31 06:31:06;;;;;;;;;;;3.70;99.90;;;;;;5016018;28;19975;-63
2021/01/31 06:33:32;;;;;;;;;;;3.60;99.90;;;;;;5015884;28;19930;-63
2021/01/31 06:36:05;;;;;;;;;;;3.60;99.90;;;;;;5016174;28;19933;-63
2021/01/31 06:38:34;;;;;;;;;;;3.60;99.90;;;;;;5015944;28;20281;-63
2021/01/31 06:41:09;;;;;;;;;;;3.50;99.90;;;;;;5015733;28;19925;-63
2021/01/31 06:43:41;;;;;;;;;;;3.50;99.90;;;;;;5015545;28;19933;-63
2021/01/31 06:46:08;;;;;;;;;;;3.50;99.90;;;;;;5015826;28;19975;-63
2021/01/31 06:48:42;;;;;;;;;;;3.50;99.90;;;;;;5015748;28;19925;-64
2021/01/31 06:51:16;;;;;;;;;;;3.40;99.90;;;;;;5015478;28;19926;-64
2021/01/31 06:53:54;;;;;;;;;;;3.30;99.90;;;;;;5014916;28;20395;-64
2021/01/31 06:56:42;;;;;;;;;;;3.40;99.90;;;;;;5015615;28;20020;-64
2021/01/31 06:59:23;;;;;;;;;;;3.20;99.90;;;;;;5015626;28;19926;-63
2021/01/31 07:01:55;;;;;;;;;;;3.10;99.90;;;;;;5015536;28;19980;-64
2021/01/31 07:04:48;;;;;;;;;;;3.10;99.90;;;;;;5014796;28;20009;-63
2021/01/31 07:07:32;;;;;;;;;;;3.10;99.90;;;;;;4990980;28;19925;-65
2021/01/31 07:10:13;;;;;;;;;;;3.20;99.90;;;;;;5015545;28;19925;-63
2021/01/31 07:12:44;;;;;;;;;;;3.20;99.90;;;;;;4992838;28;19926;-63
2021/01/31 07:15:13;;;;;;;;;;;3.10;99.90;;;;;;5014991;28;19977;-63
2021/01/31 07:17:41;;;;;;;;;;;3.10;99.90;;;;;;5014438;28;20421;-63
2021/01/31 07:20:11;;;;;;;;;;;3.20;99.90;;;;;;5014689;28;20373;-62
2021/01/31 07:22:40;;;;;;;;;;;3.20;99.90;;;;;;5014968;28;19948;-64
2021/01/31 07:25:09;;;;;;;;;;;3.30;99.90;;;;;;5014973;28;19987;-62
2021/01/31 07:27:38;;;;;;;;;;;3.30;99.90;;;;;;5014888;28;19940;-64
2021/01/31 07:30:14;;;;;;;;;;;3.20;99.90;;;;;;5015100;28;19925;-64
2021/01/31 07:33:13;;;;;;;;;;;3.20;99.90;;;;;;5014681;28;19929;-63
2021/01/31 07:36:00;;;;;;;;;;;3.20;99.90;;;;;;4973790;28;19933;-64
2021/01/31 07:38:29;;;;;;;;;;;3.20;99.90;;;;;;4968839;28;19926;-64
2021/01/31 07:40:56;;;;;;;;;;;3.20;99.90;;;;;;4997866;28;19952;-63
2021/01/31 07:43:24;;;;;;;;;;;3.30;99.90;;;;;;5014311;28;19929;-64
2021/01/31 07:45:56;;;;;;;;;;;3.40;99.90;;;;;;5014924;28;19975;-63
2021/01/31 07:48:53;;;;;;;;;;;3.30;99.90;;;;;;5014370;28;19929;-63
2021/01/31 07:51:20;;;;;;;;;;;3.30;99.90;;;;;;5014141;28;19976;-63
2021/01/31 07:53:46;;;;;;;;;;;3.40;99.90;;;;;;5014241;28;19926;-64
2021/01/31 07:56:23;;;;;;;;;;;3.60;99.90;;;;;;5013936;28;20288;-63
2021/01/31 07:58:49;;;;;;;;;;;3.50;99.90;;;;;;5014313;28;19929;-64
2021/01/31 08:01:30;;;;;;;;;;;3.40;99.90;;;;;;5013992;28;19925;-64
2021/01/31 08:04:17;;;;;;;;;;;3.40;99.90;;;;;;5017129;28;20402;-64
2021/01/31 08:06:44;;;;;;;;;;;3.40;99.90;;;;;;5017423;28;19925;-64
2021/01/31 08:09:11;;;;;;;;;;;3.40;99.90;;;;;;5017212;28;20335;-64
2021/01/31 08:11:52;;;;;;;;;;;3.40;99.90;;;;;;5016822;28;20388;-64
2021/01/31 08:14:37;;;;;;;;;;;3.40;99.90;;;;;;5017209;28;19960;-64
2021/01/31 08:17:03;;;;;;;;;;;3.50;99.90;;;;;;5016956;28;19933;-63
2021/01/31 08:19:31;;;;;;;;;;;3.50;99.90;;;;;;5016840;28;19926;-64
2021/01/31 08:21:59;;;;;;;;;;;3.50;99.90;;;;;;5016904;28;19933;-64
2021/01/31 08:24:43;;;;;;;;;;;3.50;99.90;;;;;;5016831;28;19926;-63
2021/01/31 08:27:11;;;;;;;;;;;3.70;99.90;;;;;;5018840;28;19926;-64
2021/01/31 08:29:37;;;;;;;;;;;3.70;99.90;;;;;;5016546;28;19925;-63
2021/01/31 08:32:11;;;;;;;;;;;4.20;99.90;;;;;;5016889;28;20257;-63
2021/01/31 08:34:55;;;;;;;;;;;4.40;99.90;;;;;;5017028;28;19926;-65
2021/01/31 08:37:22;;;;;;;;;;;4.50;99.90;;;;;;5016683;28;19925;-65
2021/01/31 08:39:49;;;;;;;;;;;4.50;99.90;;;;;;5016632;28;19926;-65
2021/01/31 08:42:15;;;;;;;;;;;4.30;99.90;;;;;;5016430;28;19926;-65
2021/01/31 08:44:43;;;;;;;;;;;4.50;99.90;;;;;;5016631;28;19925;-65
2021/01/31 08:47:11;;;;;;;;;;;4.50;99.90;;;;;;5016443;28;19926;-64
2021/01/31 08:49:37;;;;;;;;;;;4.50;99.90;;;;;;5016225;28;19926;-65
2021/01/31 08:52:05;;;;;;;;;;;4.40;99.90;;;;;;5016462;28;19925;-63
2021/01/31 08:54:32;;;;;;;;;;;4.40;99.90;;;;;;5016654;28;20002;-63
2021/01/31 08:56:58;;;;;;;;;;;4.40;99.90;;;;;;5016309;28;20303;-64
2021/01/31 08:59:26;;;;;;;;;;;4.50;99.90;;;;;;5016213;28;20395;-66
2021/01/31 09:02:02;;;;;;;;;;;4.60;99.90;;;;;;5016545;28;19952;-63
2021/01/31 09:04:29;;;;;;;;;;;4.60;99.90;;;;;;5016664;28;19926;-65
2021/01/31 09:07:00;;;;;;;;;;;4.60;99.90;;;;;;5016677;28;19926;-65
2021/01/31 09:09:27;;;;;;;;;;;4.70;99.90;;;;;;5016672;28;20031;-67
2021/01/31 09:11:55;;;;;;;;;;;4.70;99.90;;;;;;5016145;28;20383;-66
2021/01/31 09:14:24;;;;;;;;;;;4.70;99.90;;;;;;5016855;28;19925;-67
2021/01/31 09:16:50;;;;;;;;;;;4.60;99.90;;;;;;5016166;28;19926;-67
2021/01/31 09:19:18;;;;;;;;;;;4.50;99.90;;;;;;5015683;28;20356;-67
2021/01/31 09:21:44;;;;;;;;;;;4.50;99.90;;;;;;5016002;28;20343;-67
2021/01/31 09:24:13;;;;;;;;;;;4.60;99.90;;;;;;5016006;28;19934;-66
2021/01/31 09:26:39;;;;;;;;;;;4.60;99.90;;;;;;5016006;28;20020;-66
2021/01/31 09:29:09;;;;;;;;;;;4.60;99.90;;;;;;5016247;28;19980;-66
2021/01/31 09:31:37;;;;;;;;;;;4.60;99.90;;;;;;5015974;28;19926;-66
2021/01/31 09:34:04;;;;;;;;;;;4.60;99.90;;;;;;5016446;28;19933;-69
2021/01/31 09:36:31;;;;;;;;;;;4.70;99.90;;;;;;5016165;28;19925;-67
2021/01/31 09:38:58;;;;;;;;;;;4.80;99.90;;;;;;5017769;28;19926;-67
2021/01/31 09:41:26;;;;;;;;;;;4.70;99.90;;;;;;5016794;28;19926;-67
2021/01/31 09:43:54;;;;;;;;;;;4.60;99.90;;;;;;5016277;28;20421;-67
2021/01/31 09:46:24;;;;;;;;;;;4.70;99.90;;;;;;5015631;28;20015;-67
2021/01/31 09:48:57;;;;;;;;;;;4.70;99.90;;;;;;5015970;28;20393;-67
2021/01/31 09:51:24;;;;;;;;;;;4.80;99.90;;;;;;5015912;28;19929;-67
2021/01/31 09:53:50;;;;;;;;;;;4.80;99.90;;;;;;5016283;28;19976;-67
2021/01/31 09:56:31;;;;;;;;;;;4.80;99.90;;;;;;5016356;28;20024;-67
2021/01/31 09:58:57;;;;;;;;;;;4.80;99.90;;;;;;5016327;28;20363;-67
2021/01/31 10:01:26;;;;;;;;;;;4.80;99.90;;;;;;5015788;28;19925;-66
2021/01/31 10:03:56;;;;;;;;;;;4.80;99.90;;;;;;5015611;28;20000;-66
2021/01/31 10:06:22;;;;;;;;;;;4.70;99.90;;;;;;5016191;28;19932;-66
2021/01/31 10:08:49;;;;;;;;;;;4.70;99.90;;;;;;5015557;28;20388;-66
2021/01/31 10:11:42;;;;;;;;;;;4.70;99.90;;;;;;5015900;28;19925;-65
2021/01/31 10:14:09;;;;;;;;;;;4.70;99.90;;;;;;4991744;28;19926;-65
2021/01/31 10:16:37;;;;;;;;;;;4.70;99.90;;;;;;5015690;28;19925;-67
2021/01/31 10:19:11;;;;;;;;;;;4.70;99.90;;;;;;5015857;28;19925;-66
2021/01/31 10:21:38;;;;;;;;;;;4.60;99.90;;;;;;5015441;28;19933;-66
2021/01/31 10:24:05;;;;;;;;;;;4.60;99.90;;;;;;5014504;28;19933;-66
2021/01/31 10:26:32;;;;;;;;;;;4.60;99.90;;;;;;5015730;28;19932;-66
2021/01/31 10:28:59;;;;;;;;;;;4.70;99.90;;;;;;5014907;28;19925;-66
2021/01/31 10:31:27;;;;;;;;;;;4.70;99.90;;;;;;5014896;28;20364;-66
2021/01/31 10:33:54;;;;;;;;;;;4.70;99.90;;;;;;5015139;28;19937;-66
2021/01/31 10:36:25;;;;;;;;;;;4.80;99.90;;;;;;5014885;28;19932;-66
2021/01/31 10:38:52;;;;;;;;;;;4.80;99.90;;;;;;5015187;28;19925;-66
2021/01/31 10:41:18;;;;;;;;;;;4.90;99.90;;;;;;5014842;28;19926;-67
2021/01/31 10:43:44;;;;;;;;;;;4.90;99.90;;;;;;5015366;28;19929;-66
2021/01/31 10:46:10;;;;;;;;;;;5.00;99.90;;;;;;5015531;28;19927;-67
2021/01/31 10:48:36;;;;;;;;;;;4.90;99.90;;;;;;5015097;28;19925;-67
2021/01/31 10:51:03;;;;;;;;;;;4.90;99.90;;;;;;5015239;28;19952;-66
2021/01/31 10:53:29;;;;;;;;;;;4.90;99.90;;;;;;5015330;28;19948;-67
2021/01/31 10:55:55;;;;;;;;;;;4.90;99.90;;;;;;5024729;28;19925;-66
2021/01/31 10:58:21;;;;;;;;;;;4.90;99.90;;;;;;5026882;28;20379;-67
2021/01/31 11:00:47;;;;;;;;;;;4.90;99.90;;;;;;5015920;28;20379;-66
2021/01/31 11:03:13;;;;;;;;;;;4.80;99.90;;;;;;5015065;28;20411;-66
2021/01/31 11:05:39;;;;;;;;;;;4.70;99.90;;;;;;5014705;28;19925;-68
2021/01/31 11:08:06;;;;;;;;;;;4.70;99.90;;;;;;5014934;28;20307;-67
2021/01/31 11:10:32;;;;;;;;;;;4.80;99.90;;;;;;5030178;23;20307;-65
2021/01/31 11:12:58;;;;;;;;;;;4.90;99.90;;;;;;5015612;28;20300;-64
2021/01/31 11:15:24;;;;;;;;;;;5.00;99.90;;;;;;5015236;28;20388;-65
2021/01/31 11:17:50;;;;;;;;;;;5.00;99.90;;;;;;5024497;28;19949;-64
2021/01/31 11:20:16;;;;;;;;;;;5.10;99.90;;;;;;5020835;28;20415;-65
2021/01/31 11:22:42;;;;;;;;;;;5.10;99.90;;;;;;5015674;28;20391;-64
2021/01/31 11:25:10;;;;;;;;;;;5.20;99.90;;;;;;5015082;28;19926;-63
2021/01/31 11:27:36;;;;;;;;;;;5.20;99.90;;;;;;5015645;28;19932;-64
2021/01/31 11:30:02;;;;;;;;;;;5.30;99.90;;;;;;5015644;28;19996;-64
2021/01/31 11:32:29;;;;;;;;;;;5.40;99.90;;;;;;5016701;28;19926;-64
2021/01/31 11:34:55;;;;;;;;;;;5.30;99.90;;;;;;5017087;28;19933;-63
2021/01/31 11:37:21;;;;;;;;;;;5.40;99.90;;;;;;5020622;28;19925;-64
2021/01/31 11:39:47;;;;;;;;;;;5.40;99.90;;;;;;5019935;28;19926;-64
2021/01/31 11:42:14;;;;;;;;;;;5.40;99.90;;;;;;5020252;28;20302;-64
2021/01/31 11:44:40;;;;;;;;;;;5.30;99.90;;;;;;5020499;28;19933;-63
2021/01/31 11:47:06;;;;;;;;;;;5.30;99.90;;;;;;5020302;28;19929;-65
2021/01/31 11:49:32;;;;;;;;;;;5.40;99.90;;;;;;5019382;28;20277;-65
2021/01/31 11:51:58;;;;;;;;;;;5.40;99.90;;;;;;5019765;28;20411;-64
2021/01/31 11:54:24;;;;;;;;;;;5.40;99.90;;;;;;5019278;28;20399;-65
2021/01/31 11:56:50;;;;;;;;;;;5.50;99.90;;;;;;5019354;28;19929;-65
2021/01/31 11:59:17;;;;;;;;;;;5.50;99.90;;;;;;5019631;28;19925;-64
2021/01/31 12:01:43;;;;;;;;;;;5.50;99.90;;;;;;5019556;28;19929;-64
2021/01/31 12:04:09;;;;;;;;;;;5.50;99.90;;;;;;5020109;28;19929;-65
2021/01/31 12:06:35;;;;;;;;;;;5.40;99.90;;;;;;5020017;28;19948;-65
2021/01/31 12:09:01;;;;;;;;;;;5.40;99.90;;;;;;5019441;28;19925;-64
2021/01/31 12:11:28;;;;;;;;;;;5.40;99.90;;;;;;5019274;28;19945;-64
2021/01/31 12:13:54;;;;;;;;;;;5.40;99.90;;;;;;5019044;28;19975;-64
2021/01/31 12:16:21;;;;;;;;;;;5.60;99.90;;;;;;5018963;28;19925;-65
2021/01/31 12:18:47;;;;;;;;;;;5.60;99.90;;;;;;5019988;28;19929;-64
2021/01/31 12:21:13;;;;;;;;;;;5.70;99.90;;;;;;5018846;28;20301;-64
2021/01/31 12:23:39;;;;;;;;;;;5.80;99.90;;;;;;5037486;28;19926;-64
2021/01/31 12:26:05;;;;;;;;;;;5.90;99.90;;;;;;5034730;28;19925;-65
2021/01/31 12:28:31;;;;;;;;;;;5.90;99.90;;;;;;5035599;28;19933;-64
2021/01/31 12:30:57;;;;;;;;;;;6.00;99.90;;;;;;5035451;28;19949;-64
2021/01/31 12:33:24;;;;;;;;;;;5.90;99.90;;;;;;5038499;28;19937;-64
2021/01/31 12:35:50;;;;;;;;;;;6.00;99.90;;;;;;5027583;28;19926;-65
2021/01/31 12:38:16;;;;;;;;;;;6.20;99.90;;;;;;5022383;28;20335;-65
2021/01/31 12:40:42;;;;;;;;;;;6.10;99.90;;;;;;5028952;28;19925;-64
2021/01/31 12:43:08;;;;;;;;;;;6.10;99.90;;;;;;5036315;28;19926;-65
2021/01/31 12:45:35;;;;;;;;;;;6.10;99.90;;;;;;5027840;28;19975;-64
2021/01/31 12:48:01;;;;;;;;;;;6.20;99.90;;;;;;5020757;28;19967;-64
2021/01/31 12:50:31;;;;;;;;;;;6.20;99.90;;;;;;5018174;28;19933;-64
2021/01/31 12:52:57;;;;;;;;;;;6.20;99.90;;;;;;5018599;28;19926;-65
2021/01/31 12:55:24;;;;;;;;;;;6.20;99.90;;;;;;5017903;28;20381;-65
2021/01/31 12:57:50;;;;;;;;;;;6.20;99.90;;;;;;5019806;28;19929;-64
2021/01/31 13:00:17;;;;;;;;;;;6.10;99.90;;;;;;5019489;28;19929;-64
2021/01/31 13:02:44;;;;;;;;;;;5.90;99.90;;;;;;5020584;28;19938;-65
2021/01/31 13:05:10;;;;;;;;;;;5.90;99.90;;;;;;5018361;28;19933;-64
2021/01/31 13:07:37;;;;;;;;;;;5.90;99.90;;;;;;5019648;28;19929;-65
2021/01/31 13:10:04;;;;;;;;;;;5.90;99.90;;;;;;5019463;28;19925;-64
2021/01/31 13:12:30;;;;;;;;;;;5.80;99.90;;;;;;5025259;28;19912;-65
2021/01/31 13:14:56;;;;;;;;;;;5.70;99.90;;;;;;5041210;28;19916;-65
2021/01/31 13:17:22;;;;;;;;;;;5.60;99.90;;;;;;5041360;28;19909;-64
2021/01/31 13:19:48;;;;;;;;;;;5.60;99.90;;;;;;5031251;28;19932;-65
2021/01/31 13:22:14;;;;;;;;;;;5.50;99.90;;;;;;5023042;28;19932;-64
2021/01/31 13:24:42;;;;;;;;;;;5.50;99.90;;;;;;5020294;28;19980;-65
2021/01/31 13:27:08;;;;;;;;;;;5.50;99.90;;;;;;5018934;28;19926;-67
2021/01/31 13:29:34;;;;;;;;;;;5.40;99.90;;;;;;5019108;28;19932;-65
2021/01/31 13:32:00;;;;;;;;;;;5.40;99.90;;;;;;5018560;28;19925;-66
2021/01/31 13:34:30;;;;;;;;;;;5.30;99.90;;;;;;5019229;28;19925;-66
2021/01/31 13:36:56;;;;;;;;;;;5.30;99.90;;;;;;5017387;28;19976;-65
2021/01/31 13:39:22;;;;;;;;;;;5.30;99.90;;;;;;5017485;28;19930;-65
2021/01/31 13:41:49;;;;;;;;;;;5.30;99.90;;;;;;5017522;28;19926;-64
2021/01/31 13:44:15;;;;;;;;;;;5.30;99.90;;;;;;5017336;28;19933;-66
2021/01/31 13:46:41;;;;;;;;;;;5.40;99.90;;;;;;5017188;28;19933;-65
2021/01/31 13:49:07;;;;;;;;;;;5.40;99.90;;;;;;5017878;28;19980;-64
2021/01/31 13:51:33;;;;;;;;;;;5.40;99.90;;;;;;5017252;28;19925;-63
2021/01/31 13:53:59;;;;;;;;;;;5.40;99.90;;;;;;5017178;28;19941;-63
2021/01/31 13:56:25;;;;;;;;;;;5.40;99.90;;;;;;5017281;28;19927;-63
2021/01/31 13:58:53;;;;;;;;;;;5.50;99.90;;;;;;5016655;28;19933;-64
2021/01/31 14:01:19;;;;;;;;;;;5.50;99.90;;;;;;5016251;28;19979;-63
2021/01/31 14:03:45;;;;;;;;;;;5.50;99.90;;;;;;5016613;28;19933;-64
2021/01/31 14:06:11;;;;;;;;;;;5.40;99.90;;;;;;5016720;28;19926;-63
2021/01/31 14:08:37;;;;;;;;;;;5.30;99.90;;;;;;5016407;28;19933;-63
2021/01/31 14:11:03;;;;;;;;;;;5.40;99.90;;;;;;5016901;28;19926;-63
2021/01/31 14:13:29;;;;;;;;;;;5.30;99.90;;;;;;5016605;28;19960;-65
2021/01/31 14:15:56;;;;;;;;;;;5.30;99.90;;;;;;5016273;28;19956;-65
2021/01/31 14:18:22;;;;;;;;;;;5.30;99.90;;;;;;5016389;28;20407;-64
2021/01/31 14:20:48;;;;;;;;;;;5.30;99.90;;;;;;5016721;28;19933;-64
2021/01/31 14:23:14;;;;;;;;;;;5.30;99.90;;;;;;5015885;28;20024;-64
2021/01/31 14:25:41;;;;;;;;;;;5.30;99.90;;;;;;5016243;28;20304;-64
2021/01/31 14:28:07;;;;;;;;;;;5.30;99.90;;;;;;5016944;28;20292;-63
2021/01/31 14:30:33;;;;;;;;;;;5.40;99.90;;;;;;5015980;28;20331;-63
2021/01/31 14:33:00;;;;;;;;;;;5.40;99.90;;;;;;5016423;28;19926;-63
2021/01/31 14:35:27;;;;;;;;;;;5.40;99.90;;;;;;5015919;28;19952;-64
2021/01/31 14:37:53;;;;;;;;;;;5.40;99.90;;;;;;5016049;28;19996;-63
2021/01/31 14:40:19;;;;;;;;;;;5.40;99.90;;;;;;5015531;28;19925;-62
2021/01/31 14:42:45;;;;;;;;;;;5.30;99.90;;;;;;5015925;28;20312;-63
2021/01/31 14:45:13;;;;;;;;;;;5.60;99.90;;;;;;5031576;28;19930;-64
2021/01/31 14:47:39;;;;;;;;;;;5.50;99.90;;;;;;5024562;28;19932;-63
2021/01/31 14:50:07;;;;;;;;;;;5.40;99.90;;;;;;5016431;28;20369;-63
2021/01/31 14:52:33;;;;;;;;;;;5.40;99.90;;;;;;5016288;28;19925;-64
2021/01/31 14:55:00;;;;;;;;;;;5.40;99.90;;;;;;5015684;28;20414;-63
2021/01/31 14:57:26;;;;;;;;;;;5.40;99.90;;;;;;5015337;28;19933;-64
2021/01/31 14:59:52;;;;;;;;;;;5.40;99.90;;;;;;5018018;28;19929;-64
2021/01/31 15:02:18;;;;;;;;;;;5.20;99.90;;;;;;5025965;28;19926;-65
2021/01/31 15:04:44;;;;;;;;;;;5.30;99.90;;;;;;5015254;28;20296;-64
2021/01/31 15:07:11;;;;;;;;;;;5.30;99.90;;;;;;5015230;28;19925;-64
2021/01/31 15:09:39;;;;;;;;;;;5.30;99.90;;;;;;5015309;28;19980;-63
2021/01/31 15:12:05;;;;;;;;;;;5.40;99.90;;;;;;5015252;28;19948;-63
2021/01/31 15:14:33;;;;;;;;;;;5.30;99.90;;;;;;5015576;28;19952;-64
2021/01/31 15:16:59;;;;;;;;;;;5.30;99.90;;;;;;5015212;28;19995;-62
2021/01/31 15:19:25;;;;;;;;;;;5.40;99.90;;;;;;5015187;28;19925;-63
2021/01/31 15:21:53;;;;;;;;;;;5.30;99.90;;;;;;5014563;28;21381;-62
2021/01/31 15:24:19;;;;;;;;;;;5.30;99.90;;;;;;5014840;28;19932;-63
2021/01/31 15:26:45;;;;;;;;;;;5.30;99.90;;;;;;5014518;28;19932;-63
2021/01/31 15:29:11;;;;;;;;;;;5.30;99.90;;;;;;5015100;28;19929;-63
2021/01/31 15:31:38;;;;;;;;;;;5.40;99.90;;;;;;5015565;28;19934;-63
2021/01/31 15:34:04;;;;;;;;;;;5.40;99.90;;;;;;5015034;28;19933;-63
2021/01/31 15:36:30;;;;;;;;;;;5.40;99.90;;;;;;5015006;28;19932;-65
2021/01/31 15:38:56;;;;;;;;;;;5.40;99.90;;;;;;5014848;28;19976;-65
2021/01/31 15:41:22;;;;;;;;;;;5.40;99.90;;;;;;5016335;28;20333;-66
2021/01/31 15:43:49;;;;;;;;;;;5.20;99.90;;;;;;5014581;28;19926;-66
2021/01/31 15:46:15;;;;;;;;;;;5.30;99.90;;;;;;5015361;28;19926;-66
2021/01/31 15:48:41;;;;;;;;;;;5.30;99.90;;;;;;5014904;28;19948;-65
2021/01/31 15:51:07;;;;;;;;;;;5.30;99.90;;;;;;5014743;28;19929;-65
2021/01/31 15:53:34;;;;;;;;;;;5.30;99.90;;;;;;5014796;28;20012;-65
2021/01/31 15:56:00;;;;;;;;;;;5.30;99.90;;;;;;5014597;28;19949;-65
2021/01/31 15:58:27;;;;;;;;;;;5.30;99.90;;;;;;5016557;28;19933;-66
2021/01/31 16:00:53;;;;;;;;;;;5.30;99.90;;;;;;5024356;28;19932;-66
2021/01/31 16:03:19;;;;;;;;;;;6.00;99.90;;;;;;5022188;28;19933;-66
2021/01/31 16:05:45;;;;;;;;;;;6.30;99.90;;;;;;5025404;28;19926;-66
2021/01/31 16:08:11;;;;;;;;;;;6.70;99.90;;;;;;5037926;28;19909;-66
2021/01/31 16:10:37;;;;;;;;;;;6.70;99.90;;;;;;5038220;28;19909;-64
2021/01/31 16:13:03;;;;;;;;;;;7.00;99.90;;;;;;5038946;28;19913;-65
2021/01/31 16:15:31;;;;;;;;;;;7.10;99.90;;;;;;5036314;28;19913;-66
2021/01/31 16:17:57;;;;;;;;;;;7.40;99.90;;;;;;5015264;28;19933;-67
2021/01/31 16:20:24;;;;;;;;;;;7.50;99.90;;;;;;5014961;28;19925;-66
2021/01/31 16:22:50;;;;;;;;;;;7.50;99.90;;;;;;5016500;28;19933;-67
2021/01/31 16:25:16;;;;;;;;;;;7.50;99.90;;;;;;5018469;28;19925;-66
2021/01/31 16:27:42;;;;;;;;;;;7.60;99.90;;;;;;5017975;28;20281;-66
2021/01/31 16:30:11;;;;;;;;;;;7.60;99.90;;;;;;5018220;28;19925;-66
2021/01/31 16:32:38;;;;;;;;;;;7.70;99.90;;;;;;5017628;28;19987;-66
2021/01/31 16:35:05;;;;;;;;;;;7.70;99.90;;;;;;5019135;28;19926;-66
2021/01/31 16:37:31;;;;;;;;;;;7.60;99.90;;;;;;5019117;28;19971;-66
2021/01/31 16:39:57;;;;;;;;;;;7.30;99.90;;;;;;5024705;28;19925;-66
2021/01/31 16:42:23;;;;;;;;;;;7.10;99.90;;;;;;5031593;28;19925;-67
2021/01/31 16:44:49;;;;;;;;;;;7.10;99.90;;;;;;5035731;28;19948;-66
2021/01/31 16:47:16;;;;;;;;;;;6.90;99.90;;;;;;5037622;28;19976;-66
2021/01/31 16:49:43;;;;;;;;;;;6.90;99.90;;;;;;5023033;28;19929;-66
2021/01/31 16:52:09;;;;;;;;;;;6.70;99.90;;;;;;5020836;28;19948;-66
2021/01/31 16:54:35;;;;;;;;;;;6.80;99.90;;;;;;5021730;28;19925;-66
2021/01/31 16:57:01;;;;;;;;;;;6.70;99.90;;;;;;5021369;28;19929;-66
2021/01/31 16:59:28;;;;;;;;;;;6.60;99.90;;;;;;5020664;28;19926;-66
2021/01/31 17:01:54;;;;;;;;;;;6.70;99.90;;;;;;5019532;28;19925;-65
2021/01/31 17:04:20;;;;;;;;;;;6.70;99.90;;;;;;5020468;28;19936;-66
2021/01/31 17:06:49;;;;;;;;;;;6.50;99.90;;;;;;5021005;28;19925;-67
2021/01/31 17:09:15;;;;;;;;;;;6.70;99.90;;;;;;5020056;28;19925;-65
2021/01/31 17:11:42;;;;;;;;;;;6.50;99.90;;;;;;5018884;28;19925;-65
2021/01/31 17:14:08;;;;;;;;;;;6.20;99.90;;;;;;5020299;28;19933;-64
2021/01/31 17:16:34;;;;;;;;;;;6.00;99.90;;;;;;5020311;28;19925;-65
2021/01/31 17:19:00;;;;;;;;;;;5.70;99.90;;;;;;5019584;28;19925;-64
2021/01/31 17:21:26;;;;;;;;;;;5.60;99.90;;;;;;5019273;28;19925;-66
2021/01/31 17:23:53;;;;;;;;;;;5.40;99.90;;;;;;5019317;28;19983;-66
2021/01/31 17:26:19;;;;;;;;;;;5.30;99.90;;;;;;5020548;28;19925;-66
2021/01/31 17:28:45;;;;;;;;;;;5.20;99.90;;;;;;5035184;28;19945;-65
2021/01/31 17:31:11;;;;;;;;;;;5.00;99.90;;;;;;5038902;28;19932;-65
2021/01/31 17:33:37;;;;;;;;;;;5.00;99.90;;;;;;5038371;28;19914;-67
2021/01/31 17:36:03;;;;;;;;;;;4.90;99.90;;;;;;5023229;28;20300;-65
2021/01/31 17:38:29;;;;;;;;;;;4.90;99.90;;;;;;5021591;28;19932;-65
2021/01/31 17:40:56;;;;;;;;;;;4.90;99.90;;;;;;5019555;28;19929;-66
2021/01/31 17:43:22;;;;;;;;;;;4.90;99.90;;;;;;5018510;28;19929;-65
2021/01/31 17:45:48;;;;;;;;;;;4.90;99.90;;;;;;5018285;28;19929;-62
2021/01/31 17:48:15;;;;;;;;;;;4.80;99.90;;;;;;5018831;28;19925;-63
2021/01/31 17:50:41;;;;;;;;;;;4.90;99.90;;;;;;5017501;28;19976;-62
2021/01/31 17:53:07;;;;;;;;;;;4.90;99.90;;;;;;5018029;28;19926;-63
2021/01/31 17:55:33;;;;;;;;;;;4.90;99.90;;;;;;5018521;28;19925;-64
2021/01/31 17:58:00;;;;;;;;;;;5.00;99.90;;;;;;5018235;28;19925;-64
2021/01/31 18:00:27;;;;;;;;;;;4.90;99.90;;;;;;5017852;28;20295;-64
2021/01/31 18:02:53;;;;;;;;;;;4.90;99.90;;;;;;5018993;28;19944;-65
2021/01/31 18:05:23;;;;;;;;;;;4.90;99.90;;;;;;5018442;28;19972;-64
2021/01/31 18:07:49;;;;;;;;;;;4.90;99.90;;;;;;5018344;28;19972;-64
2021/01/31 18:10:15;;;;;;;;;;;4.90;99.90;;;;;;5017942;28;19925;-64
2021/01/31 18:12:41;;;;;;;;;;;4.90;99.90;;;;;;5018083;28;19926;-65
2021/01/31 18:15:09;;;;;;;;;;;4.90;99.90;;;;;;5017613;28;19925;-65
2021/01/31 18:17:37;;;;;;;;;;;4.80;99.90;;;;;;5017328;28;19976;-65
2021/01/31 18:20:03;;;;;;;;;;;4.80;99.90;;;;;;5016913;28;19968;-64
2021/01/31 18:22:29;;;;;;;;;;;4.80;99.90;;;;;;5017270;28;20323;-64
2021/01/31 18:24:55;;;;;;;;;;;4.80;99.90;;;;;;5018122;28;19975;-64
2021/01/31 18:27:22;;;;;;;;;;;4.80;99.90;;;;;;5018121;28;19991;-65
2021/01/31 18:29:48;;;;;;;;;;;4.80;99.90;;;;;;5018144;28;19932;-64
2021/01/31 18:32:15;;;;;;;;;;;4.90;99.90;;;;;;5018651;28;19925;-65
2021/01/31 18:34:41;;;;;;;;;;;4.80;99.90;;;;;;5018330;28;19932;-64
2021/01/31 18:37:07;;;;;;;;;;;4.80;99.90;;;;;;5016908;28;20403;-65
2021/01/31 18:39:33;;;;;;;;;;;4.80;99.90;;;;;;5017364;28;20366;-65
2021/01/31 18:41:59;;;;;;;;;;;4.80;99.90;;;;;;5017915;28;20365;-65
2021/01/31 18:44:25;;;;;;;;;;;4.80;99.90;;;;;;5017472;28;19930;-65
2021/01/31 18:46:52;;;;;;;;;;;4.70;99.90;;;;;;5017172;28;19927;-65
2021/01/31 18:49:19;;;;;;;;;;;4.70;99.90;;;;;;5017506;28;19969;-65
2021/01/31 18:51:45;;;;;;;;;;;4.70;99.90;;;;;;5016687;28;19925;-66
2021/01/31 18:54:11;;;;;;;;;;;4.60;99.90;;;;;;5016790;28;19926;-64
2021/01/31 18:56:42;;;;;;;;;;;4.60;99.90;;;;;;5016691;28;19926;-64
2021/01/31 18:59:08;;;;;;;;;;;4.60;99.90;;;;;;5017002;28;20025;-64
2021/01/31 19:01:37;;;;;;;;;;;4.60;99.90;;;;;;5016682;28;20415;-65
2021/01/31 19:04:03;;;;;;;;;;;4.70;99.90;;;;;;5018285;28;19926;-65
2021/01/31 19:06:30;;;;;;;;;;;4.70;99.90;;;;;;5032316;28;19922;-64
2021/01/31 19:08:56;;;;;;;;;;;4.60;99.90;;;;;;5029946;28;19956;-66
2021/01/31 19:11:22;;;;;;;;;;;4.60;99.90;;;;;;5017908;28;19944;-65
2021/01/31 19:13:48;;;;;;;;;;;4.60;99.90;;;;;;5018030;28;19933;-64
2021/01/31 19:16:14;;;;;;;;;;;4.50;99.90;;;;;;5017194;28;19925;-65
2021/01/31 19:18:40;;;;;;;;;;;4.50;99.90;;;;;;5017852;28;19972;-65
2021/01/31 19:21:06;;;;;;;;;;;4.60;99.90;;;;;;5017669;28;19926;-65
2021/01/31 19:23:33;;;;;;;;;;;4.60;99.90;;;;;;5017955;28;19929;-66
2021/01/31 19:25:59;;;;;;;;;;;4.60;99.90;;;;;;5017250;28;20376;-66
2021/01/31 19:28:25;;;;;;;;;;;4.50;99.90;;;;;;5018061;28;19925;-65
2021/01/31 19:30:51;;;;;;;;;;;4.50;99.90;;;;;;5017618;28;20278;-66
2021/01/31 19:33:18;;;;;;;;;;;4.50;99.90;;;;;;5023670;28;20332;-66
2021/01/31 19:35:44;;;;;;;;;;;4.50;99.90;;;;;;5028337;28;19968;-65